Terminal Aerodrome Forecast
Issued by NWS

Home | Current Version | Previous Version | Text Only | Print | Product List | Glossary On
Versions: 1 2 3 4 5 6 7 8 9 10 11 12 13
000
FTUS45 KABQ 301740
TAFFMN
TAF
KFMN 301740Z 3018/0118 27006KT P6SM BKN090
     FM302000 27010KT P6SM VCSH BKN080
     FM010200 15009KT P6SM VCSH OVC060
      TEMPO 0107/0110 -RA SCT030 OVC040
     FM011000 09015G25KT P6SM SCT020 OVC035=

USA.gov is the U.S. government's official web portal to all federal, state and local government web resources and services.